Time;durP1;ratioP1;P1;durP2;ratioP2;P2;SDS_P1;SDS_P2;PMS_P1;PMS_P2;Temp;Humidity;BMP_temperature;BMP_pressure;BME280_temperature;BME280_humidity;BME280_pressure;Samples;Min_cycle;Max_cycle;Signal;HPM_P1;HPM_P2
2021/11/28 00:00:06;;;;;;;4.78;2.80;;;;;;;8.91;48.52;93318.41;4990122;28;20022;-73
2021/11/28 00:02:34;;;;;;;3.63;2.80;;;;;;;8.88;48.93;93305.03;4990198;28;20030;-75
2021/11/28 00:05:01;;;;;;;4.18;2.42;;;;;;;9.02;48.54;93318.69;4993846;28;20620;-75
2021/11/28 00:07:43;;;;;;;4.40;2.53;;;;;;;8.95;48.30;93308.63;4993892;28;20034;-74
2021/11/28 00:13:04;;;;;;;2.55;2.35;;;;;;;8.92;48.09;93305.91;4994154;28;20093;-74
2021/11/28 00:15:29;;;;;;;3.17;2.05;;;;;;;9.04;48.08;93306.63;4992990;28;20453;-73
2021/11/28 00:17:55;;;;;;;2.65;2.20;;;;;;;9.03;47.83;93296.34;4996868;28;20025;-75
2021/11/28 00:20:20;;;;;;;2.90;2.22;;;;;;;9.03;48.38;93299.00;4993697;28;20059;-73
2021/11/28 00:22:46;;;;;;;3.05;2.42;;;;;;;9.03;48.20;93293.69;4992533;28;20552;-75
2021/11/28 00:25:15;;;;;;;2.33;1.83;;;;;;;9.00;48.14;93300.44;4993839;28;20041;-74
2021/11/28 00:27:41;;;;;;;3.53;2.40;;;;;;;9.05;47.47;93296.78;4992609;28;20522;-74
2021/11/28 00:30:10;;;;;;;2.60;2.17;;;;;;;9.01;47.65;93299.34;4993373;28;20079;-74
2021/11/28 00:32:35;;;;;;;2.88;2.50;;;;;;;9.07;48.00;93305.19;4991410;28;20125;-75
2021/11/28 00:35:01;;;;;;;3.70;2.30;;;;;;;9.03;48.13;93285.75;4992012;28;20026;-75
2021/11/28 00:37:26;;;;;;;4.40;2.40;;;;;;;9.09;48.08;93289.69;4993517;28;20022;-76
2021/11/28 00:39:52;;;;;;;2.85;2.22;;;;;;;9.14;48.23;93296.63;4993284;28;20054;-75
2021/11/28 00:42:17;;;;;;;3.47;2.72;;;;;;;9.14;47.93;93302.72;4993256;28;20042;-74
2021/11/28 00:44:43;;;;;;;3.80;2.70;;;;;;;9.13;48.10;93292.44;4993598;28;20027;-74
2021/11/28 00:47:09;;;;;;;2.85;2.55;;;;;;;9.14;47.87;93291.31;4993008;28;20026;-75
2021/11/28 00:49:37;;;;;;;3.22;2.47;;;;;;;9.12;48.11;93304.94;5005198;28;20030;-74
2021/11/28 00:52:03;;;;;;;2.63;2.17;;;;;;;9.18;47.73;93303.56;4992109;28;20037;-75
2021/11/28 00:54:29;;;;;;;2.45;1.98;;;;;;;9.22;47.69;93301.78;4993643;28;20034;-74
2021/11/28 00:56:56;;;;;;;2.28;2.08;;;;;;;9.25;47.85;93305.63;4993725;28;20097;-74
2021/11/28 00:59:21;;;;;;;3.13;2.17;;;;;;;9.26;47.82;93305.28;4993505;28;20023;-75
2021/11/28 01:01:47;;;;;;;3.83;1.95;;;;;;;9.17;47.61;93294.09;4991811;28;20057;-74
2021/11/28 01:04:12;;;;;;;2.85;2.25;;;;;;;9.25;47.93;93302.97;5007445;28;20475;-74
2021/11/28 01:06:38;;;;;;;3.33;2.40;;;;;;;9.20;47.87;93297.91;5007894;28;20034;-75
2021/11/28 01:09:07;;;;;;;3.10;2.22;;;;;;;9.27;48.00;93314.81;4993288;28;20144;-73
2021/11/28 01:11:33;;;;;;;3.38;2.10;;;;;;;9.30;48.11;93332.69;4991999;28;20057;-74
2021/11/28 01:14:00;;;;;;;2.63;2.17;;;;;;;9.36;48.30;93331.31;4993278;28;20026;-74
2021/11/28 01:16:26;;;;;;;2.97;2.60;;;;;;;9.34;47.61;93330.13;4993719;28;20033;-75
2021/11/28 01:18:52;;;;;;;3.33;2.67;;;;;;;9.36;47.78;93328.66;5003636;28;20026;-74
2021/11/28 01:21:18;;;;;;;2.65;2.17;;;;;;;9.38;47.90;93323.03;4992482;28;20022;-75
2021/11/28 01:23:43;;;;;;;2.90;2.30;;;;;;;9.37;47.68;93316.97;4992035;28;20069;-75
2021/11/28 01:26:10;;;;;;;3.13;2.35;;;;;;;9.34;47.47;93320.28;4993439;28;20052;-74
2021/11/28 01:28:35;;;;;;;2.88;2.30;;;;;;;9.34;47.61;93322.94;4993480;28;20546;-74
2021/11/28 01:31:01;;;;;;;2.88;2.10;;;;;;;9.34;47.69;93338.09;4992947;28;20030;-74
2021/11/28 01:33:26;;;;;;;2.33;2.13;;;;;;;9.25;48.20;93332.94;4991039;28;20077;-74
2021/11/28 01:35:52;;;;;;;3.90;1.85;;;;;;;9.21;48.41;93336.59;4996952;28;20027;-74
2021/11/28 01:38:20;;;;;;;3.28;2.47;;;;;;;9.18;48.33;93340.72;4992996;28;20026;-74
2021/11/28 01:40:51;;;;;;;2.97;2.33;;;;;;;9.19;48.39;93344.91;4992790;28;20050;-73
2021/11/28 01:43:18;;;;;;;2.77;2.20;;;;;;;9.14;49.20;93353.09;4991610;28;20471;-74
2021/11/28 01:45:46;;;;;;;3.03;1.90;;;;;;;9.03;48.73;93352.03;4992529;28;20027;-74
2021/11/28 01:48:14;;;;;;;3.22;2.60;;;;;;;9.02;49.13;93369.84;4990533;28;20030;-75
2021/11/28 01:50:42;;;;;;;4.43;2.30;;;;;;;8.99;49.33;93359.91;5003699;28;20023;-73
2021/11/28 01:53:12;;;;;;;2.95;2.13;;;;;;;8.98;49.61;93354.94;4991698;28;20037;-73
2021/11/28 01:55:39;;;;;;;2.53;2.20;;;;;;;8.95;49.42;93347.63;4991128;28;20480;-73
2021/11/28 01:58:06;;;;;;;2.45;2.20;;;;;;;8.92;49.81;93345.69;4992594;28;20361;-73
2021/11/28 02:00:44;;;;;;;3.67;2.38;;;;;;;8.88;49.61;93327.00;4992253;28;20030;-74
2021/11/28 02:03:11;;;;;;;2.88;2.30;;;;;;;8.90;49.94;93343.34;4993985;28;20487;-73
2021/11/28 02:05:41;;;;;;;3.30;3.00;;;;;;;8.90;50.00;93346.00;4991781;28;20057;-74
2021/11/28 02:08:06;;;;;;;6.55;2.72;;;;;;;8.89;49.47;93344.47;4990681;28;20027;-75
2021/11/28 02:10:32;;;;;;;4.97;2.20;;;;;;;8.83;49.86;93338.63;4990375;28;20114;-74
2021/11/28 02:12:57;;;;;;;2.42;2.20;;;;;;;8.89;49.87;93336.50;4991707;28;20038;-75
2021/11/28 02:15:23;;;;;;;3.05;2.03;;;;;;;8.91;49.99;93344.13;4992052;28;20037;-75
2021/11/28 02:17:54;;;;;;;2.65;2.13;;;;;;;8.92;50.01;93343.78;4994070;28;20544;-75
2021/11/28 02:20:22;;;;;;;2.83;2.03;;;;;;;8.85;50.15;93317.88;4999762;28;20112;-76
2021/11/28 02:22:48;;;;;;;1.90;1.80;;;;;;;8.88;49.79;93320.94;4991632;28;20034;-77
2021/11/28 02:25:14;;;;;;;2.03;1.80;;;;;;;8.91;49.91;93321.03;4991562;28;20206;-75
2021/11/28 02:27:40;;;;;;;2.90;2.20;;;;;;;8.89;49.93;93312.63;4990452;28;20026;-74
2021/11/28 02:30:07;;;;;;;2.92;2.10;;;;;;;8.99;49.50;93314.81;4991113;28;20030;-75
2021/11/28 02:32:33;;;;;;;1.88;1.70;;;;;;;8.97;49.63;93306.44;4991083;28;20039;-73
2021/11/28 02:34:59;;;;;;;4.30;2.13;;;;;;;8.81;49.79;93292.38;4994296;28;20056;-73
2021/11/28 02:37:24;;;;;;;4.00;2.05;;;;;;;8.99;49.57;93304.22;4991077;28;20029;-74
2021/11/28 02:39:51;;;;;;;3.30;2.25;;;;;;;8.99;49.84;93298.91;4991057;28;20022;-73
2021/11/28 02:42:18;;;;;;;2.40;2.17;;;;;;;8.99;49.78;93317.47;4990919;28;20022;-73
2021/11/28 02:44:44;;;;;;;2.50;2.30;;;;;;;8.96;49.83;93323.47;4991500;28;20534;-73
2021/11/28 02:47:10;;;;;;;2.97;2.03;;;;;;;8.99;49.67;93324.66;4990959;28;20022;-73
2021/11/28 02:49:35;;;;;;;2.30;2.10;;;;;;;8.94;49.95;93314.28;4991342;28;20491;-73
2021/11/28 02:52:01;;;;;;;2.38;2.10;;;;;;;8.88;50.12;93303.16;4993755;28;20749;-75
2021/11/28 02:54:26;;;;;;;2.78;2.10;;;;;;;8.90;49.79;93298.28;4991269;28;20067;-74
2021/11/28 02:56:52;;;;;;;2.88;2.10;;;;;;;8.91;49.58;93291.13;4991246;28;20026;-72
2021/11/28 02:59:17;;;;;;;2.80;2.17;;;;;;;8.86;49.89;93278.88;4990667;28;20022;-75
2021/11/28 03:01:43;;;;;;;3.90;2.20;;;;;;;8.87;49.83;93280.41;4990750;28;20105;-73
2021/11/28 03:04:08;;;;;;;2.58;2.30;;;;;;;8.73;49.99;93264.88;4990479;28;20439;-73
2021/11/28 03:06:34;;;;;;;4.88;2.58;;;;;;;8.77;50.08;93270.28;4991133;28;20026;-76
2021/11/28 03:08:59;;;;;;;2.50;1.88;;;;;;;8.73;50.04;93264.09;4990887;28;20022;-74
2021/11/28 03:11:25;;;;;;;2.75;1.90;;;;;;;8.76;49.98;93272.16;4989774;28;20451;-74
2021/11/28 03:13:52;;;;;;;2.67;2.25;;;;;;;8.83;50.16;93274.22;4991467;28;20026;-74
2021/11/28 03:16:23;;;;;;;2.25;2.00;;;;;;;8.74;50.04;93266.41;4991307;28;20026;-73
2021/11/28 03:18:50;;;;;;;2.33;2.13;;;;;;;8.74;50.11;93281.53;4990903;28;20057;-74
2021/11/28 03:21:19;;;;;;;2.25;1.88;;;;;;;8.68;50.11;93285.53;4990647;28;20029;-75
2021/11/28 03:23:46;;;;;;;3.42;2.35;;;;;;;8.69;50.06;93287.09;4991126;28;20030;-74
2021/11/28 03:26:21;;;;;;;3.25;2.20;;;;;;;8.70;50.09;93275.38;4991196;28;20041;-74
2021/11/28 03:28:50;;;;;;;2.10;1.90;;;;;;;8.56;50.20;93262.53;4991062;28;20027;-74
2021/11/28 03:31:16;;;;;;;4.20;2.28;;;;;;;8.63;50.35;93267.22;4990764;28;20026;-73
2021/11/28 03:33:41;;;;;;;3.35;2.55;;;;;;;8.58;50.69;93265.59;4991910;28;20034;-74
2021/11/28 03:36:08;;;;;;;4.13;2.72;;;;;;;8.60;50.82;93274.00;4990965;28;20599;-74
2021/11/28 03:38:36;;;;;;;3.13;2.38;;;;;;;8.58;50.64;93265.59;4994097;28;20030;-74
2021/11/28 03:41:01;;;;;;;3.40;2.30;;;;;;;8.54;50.51;93249.59;4997259;28;20046;-74
2021/11/28 03:43:27;;;;;;;2.50;2.00;;;;;;;8.58;50.35;93261.06;4997172;28;20608;-74
2021/11/28 03:45:52;;;;;;;3.17;2.10;;;;;;;8.55;50.63;93266.28;4997513;28;20018;-74
2021/11/28 03:48:18;;;;;;;2.42;2.20;;;;;;;8.59;50.96;93275.84;4996951;28;20026;-74
2021/11/28 03:50:43;;;;;;;2.42;2.22;;;;;;;8.56;50.06;93259.88;4996830;28;20031;-74
2021/11/28 03:53:09;;;;;;;3.67;2.53;;;;;;;8.58;50.43;93263.72;4996846;28;20037;-74
2021/11/28 03:55:36;;;;;;;2.40;2.20;;;;;;;8.56;50.36;93265.16;4997258;28;20077;-73
2021/11/28 03:58:01;;;;;;;2.58;2.15;;;;;;;8.51;50.10;93249.50;4997169;28;20054;-73
2021/11/28 04:00:27;;;;;;;2.10;1.90;;;;;;;8.63;50.28;93260.06;4996666;28;20607;-74
2021/11/28 04:02:52;;;;;;;2.78;2.10;;;;;;;7.97;50.62;93260.41;4995342;28;20432;-74
2021/11/28 04:05:18;;;;;;;3.45;1.90;;;;;;;7.98;51.49;93272.53;4997190;28;20736;-74
2021/11/28 04:07:43;;;;;;;2.75;1.98;;;;;;;7.79;51.58;93257.22;4997332;28;20031;-73
2021/11/28 04:10:09;;;;;;;3.20;2.20;;;;;;;7.98;51.29;93261.94;4995547;28;20062;-73
2021/11/28 04:12:35;;;;;;;1.95;1.75;;;;;;;7.22;52.92;93263.34;4996571;28;20034;-73
2021/11/28 04:15:00;;;;;;;3.53;1.80;;;;;;;7.30;53.49;93249.25;4997271;28;20092;-72
2021/11/28 04:17:28;;;;;;;3.85;2.28;;;;;;;7.41;52.78;93262.81;4995890;28;20022;-73
2021/11/28 04:19:53;;;;;;;2.03;1.67;;;;;;;7.58;52.16;93249.41;4998889;28;20058;-72
2021/11/28 04:22:21;;;;;;;2.30;2.10;;;;;;;7.78;52.01;93255.69;4996535;28;20042;-73
2021/11/28 04:24:48;;;;;;;3.58;2.17;;;;;;;7.55;51.83;93269.34;4996816;28;20030;-74
2021/11/28 04:27:14;;;;;;;3.03;1.80;;;;;;;7.63;51.93;93259.00;4996730;28;20026;-73
2021/11/28 04:29:41;;;;;;;2.58;2.10;;;;;;;7.39;52.45;93249.16;4996542;28;20053;-73
2021/11/28 04:32:07;;;;;;;2.10;1.90;;;;;;;7.74;52.51;93255.56;4996647;28;20025;-72
2021/11/28 04:34:32;;;;;;;2.70;2.20;;;;;;;7.83;52.25;93250.16;4999762;28;20045;-73
2021/11/28 04:36:57;;;;;;;2.08;1.88;;;;;;;7.94;51.94;93259.19;4996389;28;20495;-72
2021/11/28 04:39:23;;;;;;;2.55;1.95;;;;;;;8.01;51.73;93259.41;4996304;28;20030;-73
2021/11/28 04:41:48;;;;;;;1.90;1.80;;;;;;;8.10;51.36;93248.69;4996445;28;20031;-73
2021/11/28 04:44:14;;;;;;;1.73;1.55;;;;;;;7.94;51.04;93211.53;4996793;28;20084;-73
2021/11/28 04:46:40;;;;;;;2.45;1.80;;;;;;;8.27;51.12;93245.78;4996705;28;20054;-73
2021/11/28 04:49:06;;;;;;;2.90;1.92;;;;;;;8.35;50.41;93265.31;4994103;28;20388;-72
2021/11/28 04:51:32;;;;;;;2.17;1.75;;;;;;;8.37;50.78;93259.69;4997173;28;20041;-74
2021/11/28 04:53:58;;;;;;;3.47;1.80;;;;;;;8.44;50.30;93259.88;4994567;28;20377;-72
2021/11/28 04:56:24;;;;;;;5.88;1.63;;;;;;;8.47;49.94;93260.00;4994221;28;20026;-73
2021/11/28 04:58:50;;;;;;;2.00;1.60;;;;;;;8.49;50.10;93260.41;4994058;28;20369;-73
2021/11/28 05:01:15;;;;;;;2.08;1.65;;;;;;;8.44;49.89;93257.25;4993972;28;20109;-73
2021/11/28 05:03:41;;;;;;;1.95;1.65;;;;;;;8.42;50.03;93252.28;4993346;28;20365;-73
2021/11/28 05:06:06;;;;;;;2.28;1.85;;;;;;;8.44;49.95;93257.25;4993484;28;20053;-72
2021/11/28 05:08:31;;;;;;;1.73;1.60;;;;;;;8.52;50.19;93267.72;4993488;28;20080;-72
2021/11/28 05:10:57;;;;;;;2.05;1.95;;;;;;;8.48;49.81;93258.13;4993011;28;20105;-73
2021/11/28 05:13:22;;;;;;;2.15;1.85;;;;;;;8.51;49.81;93260.88;4993289;28;20077;-73
2021/11/28 05:15:48;;;;;;;4.97;2.30;;;;;;;8.53;49.68;93261.28;4993482;28;20034;-73
2021/11/28 05:18:13;;;;;;;2.65;1.88;;;;;;;8.61;49.73;93283.47;4993043;28;20065;-72
2021/11/28 05:20:38;;;;;;;3.05;2.28;;;;;;;8.56;50.19;93267.81;4997028;28;20037;-73
2021/11/28 05:23:04;;;;;;;3.00;1.98;;;;;;;8.64;49.58;93284.66;4993294;28;20464;-74
2021/11/28 05:25:29;;;;;;;2.03;1.92;;;;;;;8.57;49.40;93270.13;4993375;28;20531;-73
2021/11/28 05:27:54;;;;;;;1.83;1.73;;;;;;;8.59;49.06;93281.16;4993097;28;20026;-73
2021/11/28 05:30:20;;;;;;;2.40;2.20;;;;;;;8.54;49.04;93265.47;4992785;28;20019;-73
2021/11/28 05:32:45;;;;;;;3.75;2.05;;;;;;;8.61;49.39;93278.19;4992324;28;20027;-73
2021/11/28 05:35:11;;;;;;;2.13;1.90;;;;;;;8.59;49.11;93273.19;4994159;28;20027;-73
2021/11/28 05:37:37;;;;;;;3.72;2.38;;;;;;;8.56;49.14;93262.53;4996163;28;20034;-73
2021/11/28 05:40:04;;;;;;;2.35;2.15;;;;;;;8.55;49.38;93272.34;4992038;28;20488;-73
2021/11/28 05:42:29;;;;;;;2.60;2.40;;;;;;;8.66;49.09;93280.59;4991888;28;20117;-73
2021/11/28 05:44:55;;;;;;;3.88;2.42;;;;;;;8.63;49.33;93286.56;4992387;28;20080;-75
2021/11/28 05:47:20;;;;;;;3.85;2.38;;;;;;;8.65;49.13;93288.84;4992727;28;20030;-73
2021/11/28 05:49:46;;;;;;;2.67;2.47;;;;;;;8.62;49.18;93292.97;4995596;28;20038;-74
2021/11/28 05:52:11;;;;;;;3.05;2.75;;;;;;;8.62;49.10;93292.19;4995690;28;20054;-74
2021/11/28 05:54:37;;;;;;;3.45;2.70;;;;;;;8.65;49.33;93287.00;4992394;28;20030;-74
2021/11/28 05:57:02;;;;;;;3.28;2.97;;;;;;;8.68;49.28;93286.31;4992291;28;20022;-74
2021/11/28 05:59:28;;;;;;;2.72;2.50;;;;;;;8.66;49.32;93285.13;4991987;28;20034;-74
2021/11/28 06:01:54;;;;;;;2.53;2.33;;;;;;;8.73;49.04;93294.03;4991949;28;20379;-74
2021/11/28 06:04:20;;;;;;;3.15;2.38;;;;;;;8.78;49.39;93288.50;4978242;28;20143;-72
2021/11/28 06:06:45;;;;;;;2.67;2.28;;;;;;;8.77;49.32;93286.19;4991920;28;20550;-75
2021/11/28 06:09:10;;;;;;;2.50;2.10;;;;;;;8.70;49.02;93285.97;4992042;28;20030;-74
2021/11/28 06:11:36;;;;;;;3.83;2.55;;;;;;;8.70;49.25;93284.13;4991930;28;20353;-72
2021/11/28 06:14:02;;;;;;;3.63;2.30;;;;;;;8.72;49.65;93281.88;4992281;28;20033;-75
2021/11/28 06:16:27;;;;;;;4.50;2.65;;;;;;;8.72;49.53;93284.53;4992199;28;20019;-73
2021/11/28 06:18:53;;;;;;;3.85;2.42;;;;;;;8.72;49.95;93289.84;4991482;28;20065;-75
2021/11/28 06:21:18;;;;;;;3.20;2.33;;;;;;;8.69;49.52;93277.25;4995108;28;20483;-75
2021/11/28 06:23:44;;;;;;;3.45;2.85;;;;;;;8.63;49.46;93283.91;4991966;28;20071;-72
2021/11/28 06:26:09;;;;;;;4.57;2.20;;;;;;;8.27;49.61;93261.66;4991729;28;20028;-72
2021/11/28 06:28:34;;;;;;;2.83;2.38;;;;;;;8.00;50.34;93294.16;4992074;28;20073;-76
2021/11/28 06:31:01;;;;;;;5.20;2.55;;;;;;;8.06;50.73;93284.88;4991612;28;20034;-75
2021/11/28 06:33:26;;;;;;;2.97;2.63;;;;;;;8.10;50.76;93285.75;4991741;28;20052;-74
2021/11/28 06:35:52;;;;;;;2.53;2.30;;;;;;;7.58;51.64;93273.22;4994616;28;20025;-74
2021/11/28 06:38:17;;;;;;;3.13;2.40;;;;;;;7.78;52.36;93290.84;4992134;28;20030;-75
2021/11/28 06:40:42;;;;;;;3.88;3.10;;;;;;;7.97;51.86;93294.81;4991439;28;20030;-76
2021/11/28 06:43:08;;;;;;;4.30;2.92;;;;;;;8.03;51.88;93288.94;4991621;28;20121;-75
2021/11/28 06:45:34;;;;;;;3.17;2.58;;;;;;;7.76;52.50;93300.22;4990690;28;20023;-75
2021/11/28 06:47:59;;;;;;;3.03;2.78;;;;;;;7.75;52.39;93302.09;4991785;28;20030;-74
2021/11/28 06:50:25;;;;;;;4.93;2.90;;;;;;;7.87;52.63;93309.25;4990725;28;20026;-74
2021/11/28 06:52:50;;;;;;;3.35;2.60;;;;;;;7.99;52.30;93317.22;4991203;28;20104;-73
2021/11/28 06:55:16;;;;;;;3.45;2.92;;;;;;;7.95;51.61;93297.03;4991714;28;20030;-74
2021/11/28 06:57:41;;;;;;;3.28;2.88;;;;;;;7.11;53.59;93292.06;4991682;28;20022;-74
2021/11/28 07:00:08;;;;;;;2.83;2.60;;;;;;;6.65;55.55;93316.88;4991369;28;20388;-75
2021/11/28 07:02:33;;;;;;;4.00;2.72;;;;;;;6.69;56.10;93321.22;4991499;28;20081;-75
2021/11/28 07:04:59;;;;;;;3.30;2.47;;;;;;;6.68;56.11;93317.03;4991392;28;20034;-74
2021/11/28 07:07:25;;;;;;;3.80;2.60;;;;;;;7.33;55.47;93327.94;4991522;28;20365;-75
2021/11/28 07:09:51;;;;;;;3.20;2.85;;;;;;;7.44;54.20;93325.66;4991087;28;20030;-75
2021/11/28 07:12:17;;;;;;;5.95;3.40;;;;;;;7.74;53.93;93332.31;4991071;28;20038;-76
2021/11/28 07:14:42;;;;;;;4.65;3.20;;;;;;;7.74;53.77;93329.66;4991575;28;20080;-73
2021/11/28 07:17:08;;;;;;;3.55;3.25;;;;;;;6.22;57.86;93328.53;4991420;28;20392;-73
2021/11/28 07:19:34;;;;;;;4.72;3.15;;;;;;;6.87;55.87;93329.00;4988903;28;20027;-73
2021/11/28 07:21:59;;;;;;;5.03;3.17;;;;;;;7.38;55.86;93330.38;5002909;28;20034;-72
2021/11/28 07:24:25;;;;;;;3.97;3.10;;;;;;;7.72;54.53;93336.38;4990979;28;20395;-74
2021/11/28 07:26:51;;;;;;;3.63;3.10;;;;;;;7.96;54.02;93346.22;4991431;28;20019;-73
2021/11/28 07:29:17;;;;;;;5.10;3.10;;;;;;;8.12;53.60;93341.81;4990616;28;20026;-73
2021/11/28 07:31:42;;;;;;;5.53;2.85;;;;;;;8.18;53.20;93340.47;4991254;28;20025;-74
2021/11/28 07:34:10;;;;;;;4.30;2.92;;;;;;;8.28;54.13;93337.38;4990835;28;20034;-74
2021/11/28 07:36:35;;;;;;;6.32;3.10;;;;;;;8.31;53.43;93326.13;4991023;28;20045;-76
2021/11/28 07:39:01;;;;;;;3.15;2.05;;;;;;;8.48;52.67;93322.47;4990504;28;20035;-73
2021/11/28 07:41:26;;;;;;;4.60;2.70;;;;;;;8.58;52.07;93323.88;4990935;28;20489;-75
2021/11/28 07:43:52;;;;;;;4.57;2.17;;;;;;;8.55;51.85;93309.44;4990869;28;20114;-74
2021/11/28 07:46:17;;;;;;;2.88;2.33;;;;;;;8.71;51.44;93322.75;4989906;28;20123;-74
2021/11/28 07:48:42;;;;;;;4.53;2.45;;;;;;;8.73;51.38;93320.53;4990427;28;20023;-75
2021/11/28 07:51:09;;;;;;;2.40;2.17;;;;;;;8.76;50.94;93313.81;4995659;28;20698;-74
2021/11/28 07:53:34;;;;;;;2.22;2.03;;;;;;;8.82;50.55;93315.09;4996821;28;20053;-74
2021/11/28 07:56:00;;;;;;;2.25;1.90;;;;;;;8.95;50.17;93326.44;4990530;28;20469;-74
2021/11/28 07:58:25;;;;;;;3.78;2.10;;;;;;;9.01;50.23;93315.25;4990763;28;20023;-75
2021/11/28 08:00:51;;;;;;;3.63;2.00;;;;;;;9.22;50.26;93319.59;4990419;28;20383;-74
2021/11/28 08:03:16;;;;;;;3.30;2.17;;;;;;;9.42;49.65;93323.13;4990623;28;20133;-75
2021/11/28 08:05:41;;;;;;;2.92;2.45;;;;;;;9.35;49.87;93316.53;4988761;28;20034;-74
2021/11/28 08:08:07;;;;;;;2.55;2.35;;;;;;;9.56;49.00;93326.91;4989329;28;20035;-74
2021/11/28 08:10:32;;;;;;;4.03;2.78;;;;;;;9.65;48.91;93321.44;4990314;28;20032;-74
2021/11/28 08:12:58;;;;;;;2.85;2.50;;;;;;;9.84;48.31;93331.41;4990480;28;20495;-74
2021/11/28 08:15:23;;;;;;;4.43;2.33;;;;;;;10.12;48.61;93326.72;4990733;28;20026;-74
2021/11/28 08:17:49;;;;;;;2.72;2.20;;;;;;;10.23;47.98;93324.31;4989540;28;20480;-74
2021/11/28 08:20:17;;;;;;;4.55;2.65;;;;;;;10.05;48.15;93333.78;4995666;28;20364;-70
2021/11/28 08:22:43;;;;;;;3.72;2.40;;;;;;;9.81;48.50;93314.25;4995319;28;20436;-72
2021/11/28 08:25:11;;;;;;;3.47;2.42;;;;;;;9.88;49.56;93335.69;4991851;28;20034;-71
2021/11/28 08:27:37;;;;;;;4.30;2.80;;;;;;;9.85;46.77;93324.97;4993925;28;20490;-71
2021/11/28 08:30:10;;;;;;;3.65;2.65;;;;;;;9.85;48.49;93328.38;4993780;28;20026;-71
2021/11/28 08:32:36;;;;;;;5.70;2.33;;;;;;;9.94;47.99;93335.41;4993350;28;20076;-72
2021/11/28 08:35:01;;;;;;;4.80;2.60;;;;;;;9.66;49.39;93328.28;4996985;28;20418;-68
2021/11/28 08:37:26;;;;;;;3.25;2.35;;;;;;;9.76;49.43;93327.00;4995715;28;20019;-69
2021/11/28 08:39:52;;;;;;;4.28;3.13;;;;;;;9.93;49.30;93342.63;4993179;28;20023;-69
2021/11/28 08:42:17;;;;;;;2.72;2.53;;;;;;;9.89;49.39;93344.41;4993095;28;20031;-69
2021/11/28 08:44:43;;;;;;;4.65;2.50;;;;;;;9.99;49.26;93329.84;4993651;28;20058;-69
2021/11/28 08:47:08;;;;;;;3.80;3.42;;;;;;;9.82;49.58;93338.91;4992481;28;20113;-68
2021/11/28 08:49:35;;;;;;;3.10;2.80;;;;;;;10.21;49.40;93345.16;4993265;28;20396;-68
2021/11/28 08:52:00;;;;;;;4.38;3.40;;;;;;;9.98;50.54;93350.31;5011401;28;20106;-75
2021/11/28 08:54:30;;;;;;;3.50;3.20;;;;;;;10.43;50.59;93338.47;4993294;28;20038;-77
2021/11/28 08:56:55;;;;;;;2.97;2.63;;;;;;;10.60;50.81;93335.44;4993873;28;20026;-77
2021/11/28 08:59:20;;;;;;;4.82;3.20;;;;;;;10.71;50.89;93327.69;4994571;28;20025;-78
2021/11/28 09:01:46;;;;;;;4.55;3.10;;;;;;;10.57;50.75;93324.72;4993704;28;20390;-69
2021/11/28 09:04:11;;;;;;;3.63;3.00;;;;;;;10.79;51.37;93340.00;4993538;28;20023;-75
2021/11/28 09:06:36;;;;;;;3.72;3.42;;;;;;;10.82;49.49;93347.28;4993484;28;20045;-77
2021/11/28 09:09:03;;;;;;;2.80;2.60;;;;;;;10.95;48.99;93363.88;4993708;28;20472;-77
2021/11/28 09:11:29;;;;;;;3.25;2.95;;;;;;;10.80;48.48;93356.72;4991696;28;20030;-70
2021/11/28 09:13:54;;;;;;;2.97;2.67;;;;;;;10.92;48.72;93360.03;4991752;28;20022;-71
2021/11/28 09:16:20;;;;;;;4.20;2.47;;;;;;;11.06;48.04;93351.56;4991868;28;20033;-73
2021/11/28 09:18:50;;;;;;;3.75;2.42;;;;;;;11.04;46.68;93358.34;4992365;28;20022;-74
2021/11/28 09:21:16;;;;;;;3.00;2.00;;;;;;;11.18;46.22;93350.66;4995755;28;20019;-73
2021/11/28 09:26:30;;;;;;;2.60;2.08;;;;;;;11.08;46.32;93340.56;4973703;28;20042;-72
2021/11/28 09:28:59;;;;;;;2.58;2.03;;;;;;;11.25;46.26;93350.78;4972999;28;20029;-72
2021/11/28 09:31:24;;;;;;;1.70;1.60;;;;;;;11.40;45.04;93352.59;4973006;28;20018;-72
2021/11/28 09:33:50;;;;;;;2.10;1.90;;;;;;;11.49;44.96;93338.31;4972837;28;20049;-71
2021/11/28 09:36:15;;;;;;;2.80;2.10;;;;;;;11.64;43.88;93353.41;4995425;28;20099;-71
2021/11/28 09:38:40;;;;;;;3.50;1.90;;;;;;;11.88;44.28;93344.34;4994971;28;20025;-73
2021/11/28 09:41:08;;;;;;;3.13;2.10;;;;;;;11.99;43.55;93347.19;4992357;28;20026;-74
2021/11/28 09:43:36;;;;;;;2.00;1.75;;;;;;;12.21;43.61;93346.41;4990866;28;20113;-73
2021/11/28 09:46:08;;;;;;;2.70;1.67;;;;;;;12.29;43.15;93336.63;4992659;28;20065;-73
2021/11/28 09:48:35;;;;;;;3.70;2.00;;;;;;;12.62;42.17;93343.94;4992828;28;20022;-73
2021/11/28 09:51:05;;;;;;;2.55;1.95;;;;;;;12.75;42.31;93339.94;4994986;28;20033;-73
2021/11/28 09:53:32;;;;;;;2.55;1.50;;;;;;;12.93;42.29;93337.50;4990638;28;20031;-73
2021/11/28 09:55:59;;;;;;;2.35;1.45;;;;;;;12.95;41.76;93343.25;4992167;28;20050;-71
2021/11/28 09:58:26;;;;;;;2.95;2.00;;;;;;;12.90;41.92;93339.00;4992679;28;20029;-74
2021/11/28 10:00:52;;;;;;;2.50;1.90;;;;;;;12.78;42.19;93336.53;4991695;28;20022;-74
2021/11/28 10:03:18;;;;;;;2.20;1.75;;;;;;;12.74;41.98;93327.72;4991679;28;20027;-73
2021/11/28 10:05:44;;;;;;;2.58;1.75;;;;;;;12.78;41.61;93327.78;4991563;28;20083;-73
2021/11/28 10:08:10;;;;;;;3.00;1.83;;;;;;;12.58;41.71;93335.13;4990470;28;20080;-73
2021/11/28 10:10:36;;;;;;;2.80;1.70;;;;;;;12.56;42.19;93332.81;4991577;28;20105;-72
2021/11/28 10:13:02;;;;;;;1.85;1.50;;;;;;;12.45;41.77;93330.00;4990215;28;20122;-73
2021/11/28 10:15:29;;;;;;;2.83;1.55;;;;;;;12.21;42.11;93331.16;4990030;28;20022;-72
2021/11/28 10:17:57;;;;;;;2.90;1.90;;;;;;;12.02;43.24;93341.13;4991600;28;20033;-73
2021/11/28 10:20:26;;;;;;;2.08;1.60;;;;;;;11.98;43.08;93341.09;4989666;28;20057;-74
2021/11/28 10:22:52;;;;;;;1.80;1.70;;;;;;;11.91;43.72;93319.66;4995001;28;20022;-71
2021/11/28 10:25:29;;;;;;;2.38;1.90;;;;;;;11.92;43.90;93319.28;4991569;28;20041;-72
2021/11/28 10:27:57;;;;;;;1.85;1.42;;;;;;;12.13;42.99;93334.88;4991623;28;20034;-72
2021/11/28 10:30:43;;;;;;;3.72;1.73;;;;;;;12.13;42.84;93326.88;4991345;28;20030;-75
2021/11/28 10:33:20;;;;;;;3.28;1.90;;;;;;;12.21;42.80;93325.06;4992957;28;20034;-79
2021/11/28 10:36:08;;;;;;;4.25;1.60;;;;;;;12.21;42.94;93325.06;4993301;28;20034;-80
2021/11/28 10:38:44;;;;;;;2.35;1.48;;;;;;;12.02;42.39;93328.56;4992427;28;20037;-80
2021/11/28 10:41:21;;;;;;;3.58;1.70;;;;;;;11.89;42.88;93324.56;4992755;28;20076;-74
2021/11/28 10:43:47;;;;;;;2.50;1.77;;;;;;;11.84;43.06;93314.97;4990548;28;20412;-75
2021/11/28 10:46:30;;;;;;;4.00;1.73;;;;;;;11.72;43.19;93320.47;4991628;28;20065;-75
2021/11/28 10:49:19;;;;;;;3.53;1.38;;;;;;;11.16;43.96;93319.09;4989525;28;20579;-75
2021/11/28 10:51:50;;;;;;;5.40;2.00;;;;;;;10.90;45.21;93319.72;4999562;28;20030;-75
2021/11/28 10:54:40;;;;;;;2.63;1.77;;;;;;;10.62;45.77;93319.13;4992235;28;20101;-74
2021/11/28 10:57:05;;;;;;;3.17;1.77;;;;;;;10.46;47.16;93313.09;4991715;28;20027;-76
2021/11/28 10:59:31;;;;;;;2.42;1.85;;;;;;;10.36;46.62;93306.41;4991008;28;20029;-75
2021/11/28 11:01:57;;;;;;;3.00;2.30;;;;;;;10.19;47.01;93312.88;4991112;28;20561;-73
2021/11/28 11:04:23;;;;;;;2.83;2.33;;;;;;;10.03;47.58;93309.44;4990953;28;20058;-75
2021/11/28 11:07:06;;;;;;;2.97;2.10;;;;;;;9.85;48.46;93317.75;4991772;28;20329;-76
2021/11/28 11:09:42;;;;;;;2.95;2.30;;;;;;;9.66;48.40;93315.00;4971572;28;20473;-73
2021/11/28 11:12:33;;;;;;;3.45;2.22;;;;;;;9.66;48.97;93316.91;4972629;28;20362;-79
2021/11/28 11:14:59;;;;;;;5.97;3.00;;;;;;;9.43;50.16;93311.41;4973177;28;20034;-78
2021/11/28 11:17:28;;;;;;;6.43;3.15;;;;;;;9.48;50.51;93316.47;4973549;28;20153;-78
2021/11/28 11:19:55;;;;;;;5.75;2.88;;;;;;;9.45;50.57;93312.59;4977094;28;20026;-78
2021/11/28 11:22:23;;;;;;;4.13;2.80;;;;;;;9.47;51.47;93314.91;4999282;28;20054;-80
2021/11/28 11:25:06;;;;;;;6.30;3.90;;;;;;;9.35;52.31;93300.59;5005696;28;20495;-79
2021/11/28 11:27:38;;;;;;;3.58;3.08;;;;;;;9.43;52.47;93311.41;4992494;28;20038;-79
2021/11/28 11:30:08;;;;;;;;;;;;;;;9.36;52.42;93314.63;4992486;28;20109;-76
2021/11/28 11:32:46;;;;;;;3.50;2.83;;;;;;;9.18;52.43;93306.22;4991415;28;19920;-78
2021/11/28 11:35:32;;;;;;;4.32;3.33;;;;;;;9.25;52.47;93308.28;4991845;28;20420;-82
2021/11/28 11:38:17;;;;;;;5.55;3.08;;;;;;;9.32;52.00;93319.88;5003145;28;20042;-82
2021/11/28 11:40:43;;;;;;;3.85;3.30;;;;;;;9.42;52.66;93317.81;4991424;28;20026;-81
2021/11/28 11:43:09;;;;;;;3.53;3.22;;;;;;;9.48;52.08;93321.78;4992325;28;20109;-81
2021/11/28 11:45:36;;;;;;;5.25;3.83;;;;;;;9.53;51.77;93321.53;4992688;28;20494;-78